Time;durP1;ratioP1;P1;durP2;ratioP2;P2;SDS_P1;SDS_P2;PMS_P1;PMS_P2;Temp;Humidity;BMP_temperature;BMP_pressure;BME280_temperature;BME280_humidity;BME280_pressure;Samples;Min_cycle;Max_cycle;Signal;HPM_P1;HPM_P2
2021/11/01 00:00:55;;;;;;;1.13;0.50;;;17.60;61.60;;;;;;5034254;28;20017;-85
2021/11/01 00:03:22;;;;;;;1.70;0.60;;;17.60;61.60;;;;;;5019273;28;20100;-85
2021/11/01 00:05:48;;;;;;;1.30;0.80;;;17.60;61.60;;;;;;5017951;28;20009;-85
2021/11/01 00:08:14;;;;;;;1.48;0.70;;;17.60;61.60;;;;;;5019603;28;20018;-85
2021/11/01 00:10:40;;;;;;;1.33;0.75;;;17.60;61.50;;;;;;5036780;28;20079;-85
2021/11/01 00:13:06;;;;;;;1.55;0.73;;;17.60;61.50;;;;;;5018798;28;20025;-85
2021/11/01 00:15:34;;;;;;;1.85;0.75;;;17.50;61.50;;;;;;5002574;28;20484;-84
2021/11/01 00:18:00;;;;;;;1.75;0.70;;;17.60;61.50;;;;;;5035202;28;20108;-84
2021/11/01 00:20:26;;;;;;;1.55;0.70;;;17.60;61.50;;;;;;5018305;28;20028;-84
2021/11/01 00:22:52;;;;;;;1.42;0.73;;;17.60;61.50;;;;;;5016583;28;20014;-84
2021/11/01 00:25:20;;;;;;;1.40;0.80;;;17.60;61.50;;;;;;5032531;28;20025;-85
2021/11/01 00:27:46;;;;;;;1.05;0.68;;;17.60;61.50;;;;;;5016415;28;20088;-84
2021/11/01 00:30:13;;;;;;;1.20;0.57;;;17.60;61.50;;;;;;5033773;28;20073;-83
2021/11/01 00:32:41;;;;;;;1.55;0.73;;;17.60;61.50;;;;;;5032611;28;20033;-83
2021/11/01 00:35:07;;;;;;;0.95;0.60;;;17.60;61.50;;;;;;5032297;28;20021;-83
2021/11/01 00:37:32;;;;;;;1.33;0.80;;;17.50;61.40;;;;;;4999253;28;20021;-85
2021/11/01 00:39:59;;;;;;;0.90;0.52;;;17.60;61.40;;;;;;4999313;28;20043;-85
2021/11/01 00:42:24;;;;;;;0.80;0.50;;;17.60;61.40;;;;;;5018190;28;20021;-85
2021/11/01 00:44:50;;;;;;;1.60;0.70;;;17.60;61.40;;;;;;5017681;28;20428;-84
2021/11/01 00:47:16;;;;;;;1.27;0.60;;;17.60;61.40;;;;;;5034011;28;20018;-85
2021/11/01 00:49:43;;;;;;;1.27;0.70;;;17.50;61.40;;;;;;5033415;28;20071;-84
2021/11/01 00:52:10;;;;;;;1.75;0.70;;;17.50;61.40;;;;;;5002926;28;20021;-84
2021/11/01 00:54:37;;;;;;;0.95;0.55;;;17.50;61.30;;;;;;5038121;28;20020;-84
2021/11/01 00:57:07;;;;;;;1.33;0.52;;;17.50;61.40;;;;;;5037721;28;20022;-84
2021/11/01 00:59:33;;;;;;;1.42;0.80;;;17.50;61.40;;;;;;5034026;28;20108;-85
2021/11/01 01:02:00;;;;;;;2.88;0.70;;;17.50;61.30;;;;;;5035132;28;20048;-85
2021/11/01 01:04:29;;;;;;;1.55;0.60;;;17.50;61.30;;;;;;5018796;28;20487;-84
2021/11/01 01:06:56;;;;;;;1.40;0.68;;;17.50;61.30;;;;;;5036919;28;20028;-85
2021/11/01 01:09:22;;;;;;;3.03;0.82;;;17.50;61.30;;;;;;5041498;28;20033;-85
2021/11/01 01:11:48;;;;;;;1.67;0.68;;;17.50;61.30;;;;;;5006494;28;20018;-85
2021/11/01 01:14:13;;;;;;;1.23;0.52;;;17.50;61.30;;;;;;5039529;28;20049;-84
2021/11/01 01:16:43;;;;;;;1.75;0.60;;;17.50;61.20;;;;;;5025343;28;20040;-85
2021/11/01 01:19:20;;;;;;;1.20;0.57;;;17.50;61.20;;;;;;5017913;28;20380;-85
2021/11/01 01:24:31;;;;;;;1.17;0.70;;;17.50;61.30;;;;;;5047192;28;20028;-86
2021/11/01 01:26:57;;;;;;;1.42;0.65;;;17.50;61.30;;;;;;5013036;28;20060;-85
2021/11/01 01:29:23;;;;;;;1.70;0.70;;;17.50;61.30;;;;;;5047281;28;20025;-85
2021/11/01 01:31:57;;;;;;;1.73;0.77;;;17.50;61.30;;;;;;5029387;28;20025;-85
2021/11/01 01:34:27;;;;;;;1.55;0.60;;;17.50;61.30;;;;;;5046379;28;20484;-85
2021/11/01 01:36:53;;;;;;;2.58;0.70;;;17.50;61.30;;;;;;5032302;28;20404;-85
2021/11/01 01:39:19;;;;;;;1.17;0.60;;;17.50;61.20;;;;;;5033140;28;20022;-86
2021/11/01 01:41:46;;;;;;;1.80;0.70;;;17.50;61.20;;;;;;5050547;28;20010;-86
2021/11/01 01:44:13;;;;;;;0.63;0.60;;;17.50;61.20;;;;;;5046017;28;20025;-85
2021/11/01 01:46:40;;;;;;;1.17;0.65;;;17.50;61.20;;;;;;5033382;28;20028;-85
2021/11/01 01:49:06;;;;;;;0.88;0.50;;;17.50;61.20;;;;;;5054021;28;20026;-86
2021/11/01 01:51:34;;;;;;;0.68;0.40;;;17.50;61.20;;;;;;5053303;28;20024;-85
2021/11/01 01:54:00;;;;;;;3.20;0.68;;;17.50;61.20;;;;;;5050583;28;20029;-84
2021/11/01 01:56:26;;;;;;;1.35;0.55;;;17.50;61.20;;;;;;5030727;28;20082;-85
2021/11/01 01:58:56;;;;;;;1.02;0.63;;;17.50;61.20;;;;;;5028125;28;20052;-85
2021/11/01 02:01:22;;;;;;;1.27;0.75;;;17.50;61.20;;;;;;5013907;28;20472;-85
2021/11/01 02:03:50;;;;;;;1.77;0.90;;;17.50;61.20;;;;;;5029170;28;20029;-85
2021/11/01 02:06:40;;;;;;;0.75;0.57;;;17.40;61.10;;;;;;5024229;28;20068;-85
2021/11/01 02:09:35;;;;;;;0.82;0.50;;;17.50;61.20;;;;;;5025688;28;20025;-84
2021/11/01 02:12:06;;;;;;;1.40;0.57;;;17.50;61.20;;;;;;5026226;28;20055;-85
2021/11/01 02:14:42;;;;;;;1.73;0.63;;;17.50;61.20;;;;;;5043742;28;20098;-83
2021/11/01 02:17:08;;;;;;;0.82;0.57;;;17.50;61.20;;;;;;5059074;28;20010;-84
2021/11/01 02:19:37;;;;;;;1.00;0.60;;;17.50;61.20;;;;;;5027007;28;20044;-84
2021/11/01 02:22:06;;;;;;;1.48;0.90;;;17.50;61.20;;;;;;5024420;28;20009;-85
2021/11/01 02:24:43;;;;;;;1.05;0.60;;;17.50;61.20;;;;;;5036715;28;20013;-83
2021/11/01 02:27:10;;;;;;;1.17;0.60;;;17.50;61.20;;;;;;5044890;28;20063;-84
2021/11/01 02:29:36;;;;;;;2.28;0.60;;;17.50;61.20;;;;;;5040893;28;20014;-83
2021/11/01 02:32:03;;;;;;;1.17;0.60;;;17.40;61.10;;;;;;5025121;28;20025;-83
2021/11/01 02:34:29;;;;;;;0.85;0.55;;;17.50;61.20;;;;;;5007549;28;20009;-84
2021/11/01 02:36:54;;;;;;;1.02;0.50;;;17.50;61.10;;;;;;5023388;28;20031;-84
2021/11/01 02:39:21;;;;;;;1.13;0.50;;;17.50;61.10;;;;;;5038507;28;20380;-84
2021/11/01 02:41:47;;;;;;;1.33;0.55;;;17.50;61.10;;;;;;5039013;28;20021;-84
2021/11/01 02:44:13;;;;;;;1.48;0.45;;;17.40;61.10;;;;;;5039985;28;20017;-84
2021/11/01 02:46:39;;;;;;;1.35;0.60;;;17.50;61.10;;;;;;5039416;28;20056;-85
2021/11/01 02:49:05;;;;;;;0.68;0.60;;;17.50;61.10;;;;;;5021035;28;20428;-84
2021/11/01 02:51:32;;;;;;;1.63;0.68;;;17.50;61.10;;;;;;5004247;28;20018;-84
2021/11/01 02:54:00;;;;;;;0.57;0.47;;;17.40;61.00;;;;;;5037386;28;20087;-83
2021/11/01 02:56:26;;;;;;;1.48;0.60;;;17.50;61.10;;;;;;5021626;28;20066;-84
2021/11/01 02:58:52;;;;;;;0.90;0.63;;;17.40;61.00;;;;;;5037168;28;20033;-84
2021/11/01 03:01:21;;;;;;;0.82;0.60;;;17.40;61.00;;;;;;5024215;28;20021;-85
2021/11/01 03:03:48;;;;;;;1.27;0.52;;;17.40;61.00;;;;;;5021492;28;20049;-84
2021/11/01 03:06:20;;;;;;;0.82;0.55;;;17.40;61.00;;;;;;5038188;28;20042;-85
2021/11/01 03:08:46;;;;;;;1.05;0.68;;;17.40;61.00;;;;;;5037459;28;20022;-84
2021/11/01 03:11:12;;;;;;;1.25;0.70;;;17.40;61.00;;;;;;5020131;28;20048;-85
2021/11/01 03:13:38;;;;;;;1.42;0.70;;;17.40;61.00;;;;;;5029069;28;20036;-84
2021/11/01 03:16:06;;;;;;;1.33;0.65;;;17.40;61.00;;;;;;5031876;28;20039;-85
2021/11/01 03:18:43;;;;;;;0.82;0.50;;;17.40;61.00;;;;;;5031458;28;20017;-84
2021/11/01 03:21:10;;;;;;;0.80;0.60;;;17.40;61.00;;;;;;5032970;28;20391;-83
2021/11/01 03:23:36;;;;;;;0.80;0.40;;;17.40;61.00;;;;;;5010385;28;20021;-84
2021/11/01 03:26:10;;;;;;;1.30;0.63;;;17.40;61.00;;;;;;5021560;28;20081;-84
2021/11/01 03:28:35;;;;;;;1.20;0.50;;;17.40;61.00;;;;;;5004783;28;20109;-84
2021/11/01 03:31:03;;;;;;;1.17;0.65;;;17.40;61.00;;;;;;5018059;28;20440;-85
2021/11/01 03:33:36;;;;;;;1.40;0.52;;;17.40;61.00;;;;;;5018398;28;20430;-85
2021/11/01 03:36:02;;;;;;;0.63;0.50;;;17.40;61.00;;;;;;5003319;28;20012;-84
2021/11/01 03:38:29;;;;;;;0.95;0.60;;;17.40;61.60;;;;;;5020811;28;20021;-84
2021/11/01 03:40:55;;;;;;;0.73;0.50;;;17.40;61.00;;;;;;5035662;28;20020;-84
2021/11/01 03:43:30;;;;;;;1.73;0.80;;;17.40;61.00;;;;;;5035840;28;20017;-84
2021/11/01 03:45:58;;;;;;;1.10;0.60;;;17.40;61.00;;;;;;5035471;28;20016;-84
2021/11/01 03:48:28;;;;;;;1.13;0.60;;;17.40;61.00;;;;;;5019284;28;20018;-84
2021/11/01 03:51:03;;;;;;;1.15;0.60;;;17.40;61.00;;;;;;5017698;28;20024;-85
2021/11/01 03:53:32;;;;;;;0.85;0.60;;;17.30;61.00;;;;;;5019180;28;20072;-84
2021/11/01 03:56:14;;;;;;;0.98;0.50;;;17.30;61.00;;;;;;5035087;28;20049;-85
2021/11/01 03:58:40;;;;;;;1.70;0.60;;;17.40;61.00;;;;;;5024219;28;20028;-85
2021/11/01 04:01:06;;;;;;;1.15;0.60;;;17.40;61.00;;;;;;5007966;28;20095;-85
2021/11/01 04:03:32;;;;;;;0.98;0.68;;;17.40;61.00;;;;;;5040353;28;20554;-84
2021/11/01 04:06:03;;;;;;;0.77;0.50;;;17.40;61.00;;;;;;5021441;28;20022;-85
2021/11/01 04:08:30;;;;;;;1.48;0.63;;;17.40;61.00;;;;;;5006726;28;20013;-84
2021/11/01 04:10:56;;;;;;;1.55;0.73;;;17.40;60.90;;;;;;5021067;28;20028;-85
2021/11/01 04:13:24;;;;;;;1.20;0.60;;;17.30;60.90;;;;;;5036224;28;20468;-84
2021/11/01 04:15:57;;;;;;;1.10;0.63;;;17.40;60.80;;;;;;5036499;28;20506;-85
2021/11/01 04:18:37;;;;;;;1.05;0.50;;;17.50;60.50;;;;;;5035611;28;20371;-84
2021/11/01 04:21:08;;;;;;;0.63;0.52;;;17.60;60.10;;;;;;5036446;28;20506;-84
2021/11/01 04:23:35;;;;;;;1.58;0.60;;;17.70;59.90;;;;;;5036009;28;20068;-85
2021/11/01 04:26:02;;;;;;;0.80;0.60;;;17.70;59.80;;;;;;5002456;28;20400;-84
2021/11/01 04:28:29;;;;;;;1.00;0.70;;;17.80;59.60;;;;;;5035818;28;20044;-85
2021/11/01 04:31:04;;;;;;;1.75;0.63;;;17.90;59.30;;;;;;5037137;28;20418;-84
2021/11/01 04:33:30;;;;;;;0.82;0.45;;;18.00;59.10;;;;;;5038614;28;20365;-85
2021/11/01 04:36:02;;;;;;;0.52;0.40;;;18.10;58.80;;;;;;5040851;28;20492;-83
2021/11/01 04:41:19;;;;;;;0.73;0.45;;;18.20;58.40;;;;;;5038806;28;20548;-84
2021/11/01 04:54:27;;;;;;;1.10;0.57;;;18.70;57.10;;;;;;5039709;28;20387;-84
2021/11/01 04:56:53;;;;;;;0.75;0.50;;;18.80;56.70;;;;;;5037085;28;20044;-85
2021/11/01 04:59:39;;;;;;;1.10;0.70;;;18.90;56.50;;;;;;5027554;28;20395;-83
2021/11/01 05:02:04;;;;;;;0.63;0.40;;;19.10;56.20;;;;;;5024623;28;20387;-83
2021/11/01 05:04:54;;;;;;;0.93;0.60;;;19.20;55.90;;;;;;5027908;28;20029;-85
2021/11/01 05:07:21;;;;;;;0.68;0.50;;;19.30;55.60;;;;;;5041255;28;20025;-84
2021/11/01 05:10:13;;;;;;;0.68;0.50;;;19.40;55.40;;;;;;5041392;28;20025;-84
2021/11/01 05:12:41;;;;;;;0.82;0.65;;;19.50;55.10;;;;;;5046739;28;20038;-84
2021/11/01 05:15:12;;;;;;;0.85;0.50;;;19.60;54.80;;;;;;5050932;28;20021;-84
2021/11/01 05:17:56;;;;;;;0.85;0.60;;;19.70;54.70;;;;;;5033559;28;20093;-85
2021/11/01 05:20:35;;;;;;;0.50;0.50;;;19.70;54.40;;;;;;5018517;28;20036;-83
2021/11/01 05:23:27;;;;;;;1.67;0.52;;;19.90;54.20;;;;;;5049468;28;20014;-83
2021/11/01 05:31:07;;;;;;;0.40;0.40;;;20.10;53.60;;;;;;5024888;28;20037;-83
2021/11/01 05:35:59;;;;;;;1.00;0.52;;;20.20;53.50;;;;;;5025037;28;20093;-83
2021/11/01 05:38:34;;;;;;;0.75;0.43;;;20.20;53.60;;;;;;5044260;28;20428;-84
2021/11/01 05:41:01;;;;;;;1.35;0.60;;;20.10;53.50;;;;;;5045246;28;20005;-83
2021/11/01 05:43:26;;;;;;;0.50;0.45;;;20.10;53.60;;;;;;5028462;28;20381;-85
2021/11/01 05:45:53;;;;;;;0.68;0.50;;;20.10;53.60;;;;;;5029170;28;20379;-83
2021/11/01 05:48:20;;;;;;;0.70;0.50;;;20.10;53.70;;;;;;5042666;28;20021;-84
2021/11/01 05:50:47;;;;;;;1.65;0.63;;;20.10;53.80;;;;;;5041406;28;20029;-83
2021/11/01 05:53:14;;;;;;;0.77;0.40;;;20.00;53.90;;;;;;5044661;28;20028;-84
2021/11/01 05:56:10;;;;;;;0.40;0.40;;;20.00;54.10;;;;;;5033846;28;20041;-81
2021/11/01 05:58:57;;;;;;;1.00;0.52;;;20.00;54.10;;;;;;5026501;28;20587;-83
2021/11/01 06:04:07;;;;;;;0.63;0.40;;;20.00;54.20;;;;;;5045952;28;20042;-84
2021/11/01 06:14:31;;;;;;;0.60;0.50;;;20.10;54.10;;;;;;5044843;28;20040;-83
2021/11/01 06:17:05;;;;;;;1.58;0.52;;;20.00;54.10;;;;;;5051385;28;20030;-84
2021/11/01 06:19:35;;;;;;;0.98;0.60;;;20.00;54.20;;;;;;5017264;28;20401;-83
2021/11/01 06:22:04;;;;;;;0.95;0.60;;;20.10;54.10;;;;;;5047265;28;20024;-85
2021/11/01 06:26:57;;;;;;;0.50;0.45;;;20.10;54.10;;;;;;5046767;28;20018;-83
2021/11/01 06:29:33;;;;;;;2.65;0.70;;;20.00;54.10;;;;;;5046784;28;20032;-85
2021/11/01 06:32:10;;;;;;;0.55;0.50;;;20.10;54.10;;;;;;5033809;28;20451;-83
2021/11/01 06:38:58;;;;;;;0.93;0.50;;;20.10;54.10;;;;;;5035384;28;20029;-83
2021/11/01 06:45:38;;;;;;;0.70;0.50;;;20.10;54.10;;;;;;5044584;28;20040;-83
2021/11/01 06:51:01;;;;;;;1.17;0.47;;;20.10;54.00;;;;;;5045851;28;20036;-82
2021/11/01 06:58:31;;;;;;;1.23;0.50;;;20.20;53.80;;;;;;5019967;28;20079;-83
2021/11/01 07:14:07;;;;;;;1.33;0.50;;;20.20;53.80;;;;;;5038521;28;20040;-83
2021/11/01 07:14:53;;;;;;;1.25;0.65;;;20.20;53.90;;;;;;5037148;28;20499;-83
2021/11/01 07:18:08;;;;;;;0.88;0.50;;;20.20;53.80;;;;;;5036939;28;20029;-83
2021/11/01 07:23:04;;;;;;;1.23;0.50;;;20.20;53.80;;;;;;5036736;28;20040;-83
2021/11/01 08:44:27;;;;;;;1.08;0.45;;;20.50;53.20;;;;;;5024288;28;20056;-84
2021/11/01 08:50:10;;;;;;;1.00;0.43;;;20.60;53.10;;;;;;5044596;28;20026;-84
2021/11/01 09:06:14;;;;;;;1.15;0.50;;;20.70;53.00;;;;;;5055559;28;20045;-84
2021/11/01 09:24:51;;;;;;;1.35;0.57;;;20.70;52.80;;;;;;5044385;28;20017;-83
2021/11/01 09:27:20;;;;;;;1.20;0.63;;;20.70;52.80;;;;;;5031162;28;20014;-84
2021/11/01 09:38:07;;;;;;;1.00;0.50;;;20.70;52.60;;;;;;5030544;28;20438;-84
2021/11/01 09:43:17;;;;;;;0.98;0.50;;;20.80;52.60;;;;;;5047030;28;20028;-84
2021/11/01 09:45:43;;;;;;;0.60;0.50;;;20.70;52.60;;;;;;5013667;28;20010;-84
2021/11/01 09:48:09;;;;;;;0.70;0.40;;;20.70;52.60;;;;;;5049197;28;20022;-84
2021/11/01 09:50:35;;;;;;;0.77;0.50;;;20.80;53.10;;;;;;5033812;28;20014;-84
2021/11/01 09:53:09;;;;;;;1.15;0.55;;;20.80;52.50;;;;;;5049701;28;20025;-84
2021/11/01 09:56:05;;;;;;;1.17;0.45;;;20.80;52.50;;;;;;5030697;28;20096;-84
2021/11/01 10:01:17;;;;;;;1.15;0.40;;;20.80;52.50;;;;;;5045248;28;20098;-84
2021/11/01 10:03:45;;;;;;;1.35;0.60;;;20.80;52.50;;;;;;5031934;28;20029;-83
2021/11/01 10:06:15;;;;;;;0.90;0.50;;;20.80;52.40;;;;;;5030178;28;20014;-84
2021/11/01 10:08:49;;;;;;;1.58;0.60;;;20.80;52.50;;;;;;5024367;28;20020;-84
2021/11/01 10:11:17;;;;;;;1.80;0.50;;;20.80;52.50;;;;;;5012191;28;20418;-84
2021/11/01 10:13:50;;;;;;;1.58;0.60;;;20.80;52.40;;;;;;5029457;28;20016;-83
2021/11/01 10:19:38;;;;;;;0.95;0.50;;;20.70;52.50;;;;;;5043395;28;20068;-84
2021/11/01 10:22:07;;;;;;;0.93;0.47;;;20.80;52.50;;;;;;5011619;28;20013;-84
2021/11/01 10:24:41;;;;;;;1.17;0.52;;;20.70;52.50;;;;;;5024518;28;20426;-85
2021/11/01 10:27:08;;;;;;;0.93;0.40;;;20.80;52.40;;;;;;5021820;28;20037;-85
2021/11/01 10:29:47;;;;;;;1.25;0.50;;;20.80;52.40;;;;;;5036830;28;20383;-85
2021/11/01 10:32:13;;;;;;;0.50;0.40;;;20.80;52.30;;;;;;5038351;28;20484;-85
2021/11/01 10:34:40;;;;;;;0.68;0.35;;;20.80;52.30;;;;;;5021653;28;20029;-85
2021/11/01 10:37:12;;;;;;;1.23;0.70;;;20.80;52.20;;;;;;5038494;28;20049;-85
2021/11/01 10:39:38;;;;;;;0.73;0.40;;;20.80;52.30;;;;;;5021199;28;20026;-85
2021/11/01 10:42:29;;;;;;;1.02;0.47;;;20.80;52.30;;;;;;5040195;28;20020;-86
2021/11/01 10:45:09;;;;;;;0.77;0.50;;;20.90;52.30;;;;;;5032239;28;20081;-84
2021/11/01 11:12:37;;;;;;;0.75;0.50;;;21.00;52.00;;;;;;4951976;29;20114;-84
2021/11/01 11:15:11;;;;;;;0.70;0.40;;;21.00;52.00;;;;;;4939542;29;20038;-85
2021/11/01 11:26:09;;;;;;;1.35;0.60;;;21.00;52.20;;;;;;4941255;29;20035;-84
2021/11/01 11:29:06;;;;;;;1.10;0.50;;;20.90;52.20;;;;;;4924563;29;20034;-84
2021/11/01 11:48:35;;;;;;;1.17;0.50;;;20.90;52.30;;;;;;4973471;28;20034;-84
2021/11/01 11:51:10;;;;;;;1.02;0.45;;;20.90;52.30;;;;;;4957668;28;20498;-84
2021/11/01 11:53:57;;;;;;;0.95;0.60;;;21.00;52.30;;;;;;4972862;28;20057;-84
2021/11/01 11:56:30;;;;;;;0.80;0.52;;;21.00;52.20;;;;;;4973424;28;20027;-84
2021/11/01 11:59:00;;;;;;;0.52;0.30;;;21.00;52.30;;;;;;4973389;28;20027;-85
2021/11/01 12:01:28;;;;;;;0.57;0.40;;;21.00;52.30;;;;;;4973416;28;20158;-84
2021/11/01 12:03:55;;;;;;;0.35;0.35;;;20.90;52.30;;;;;;4958510;28;20067;-84
2021/11/01 12:06:22;;;;;;;1.45;0.63;;;21.00;52.30;;;;;;4959743;28;20019;-85
2021/11/01 12:08:56;;;;;;;1.00;0.40;;;21.00;52.30;;;;;;4977532;28;20022;-83
2021/11/01 12:11:41;;;;;;;1.42;0.50;;;21.00;52.30;;;;;;5041971;28;20018;-83
2021/11/01 12:17:05;;;;;;;0.73;0.32;;;21.10;52.20;;;;;;4996937;28;20025;-83
2021/11/01 12:19:32;;;;;;;1.50;0.57;;;21.10;52.20;;;;;;5035390;28;20033;-83
2021/11/01 12:22:37;;;;;;;1.05;0.60;;;21.00;52.20;;;;;;5049662;28;20026;-83
2021/11/01 12:25:06;;;;;;;1.75;0.40;;;21.00;52.30;;;;;;5035172;28;20029;-83
2021/11/01 12:27:34;;;;;;;1.05;0.47;;;21.10;52.20;;;;;;5035093;28;20009;-84
2021/11/01 12:30:04;;;;;;;1.50;0.50;;;21.10;52.00;;;;;;5006345;28;20096;-84
2021/11/01 12:32:48;;;;;;;1.05;0.50;;;21.10;51.90;;;;;;5024408;28;20029;-84
2021/11/01 12:35:22;;;;;;;1.35;0.43;;;21.20;51.90;;;;;;5036728;28;20024;-83
2021/11/01 12:38:20;;;;;;;0.65;0.35;;;21.10;52.00;;;;;;5034641;28;20071;-84
2021/11/01 12:40:55;;;;;;;0.98;0.38;;;21.10;52.10;;;;;;5034531;28;20053;-84
2021/11/01 12:57:19;;;;;;;1.02;0.50;;;21.20;51.70;;;;;;4927735;29;20414;-84
2021/11/01 12:59:47;;;;;;;1.20;0.60;;;21.10;52.00;;;;;;4922529;29;20066;-84
2021/11/01 13:02:19;;;;;;;1.17;0.50;;;21.00;52.10;;;;;;4921440;29;20023;-84
2021/11/01 13:04:45;;;;;;;1.05;0.47;;;21.10;52.00;;;;;;4923553;29;20194;-84
2021/11/01 13:07:40;;;;;;;0.80;0.40;;;21.20;51.90;;;;;;4925377;29;20033;-84
2021/11/01 13:10:16;;;;;;;1.20;0.40;;;21.20;52.00;;;;;;4909773;29;20087;-84
2021/11/01 13:18:11;;;;;;;0.70;0.50;;;21.20;51.70;;;;;;4921689;29;20036;-85
2021/11/01 13:20:47;;;;;;;0.68;0.40;;;21.20;51.80;;;;;;4936337;29;20087;-84
2021/11/01 13:23:13;;;;;;;0.77;0.38;;;21.10;52.00;;;;;;4934373;29;20023;-84
2021/11/01 13:29:10;;;;;;;0.70;0.32;;;21.10;52.20;;;;;;4934011;29;20028;-84
2021/11/01 13:37:09;;;;;;;0.88;0.40;;;21.10;51.90;;;;;;5036906;28;20101;-84
2021/11/01 13:39:36;;;;;;;1.95;0.70;;;21.10;51.90;;;;;;5052699;28;20028;-84
2021/11/01 13:42:12;;;;;;;0.93;0.50;;;21.10;51.90;;;;;;5052033;28;20388;-83
2021/11/01 13:44:39;;;;;;;1.15;0.40;;;21.10;52.00;;;;;;5033053;28;20039;-83
2021/11/01 13:47:07;;;;;;;0.98;0.60;;;21.10;52.20;;;;;;5048498;28;20013;-83
2021/11/01 13:49:37;;;;;;;1.02;0.43;;;21.00;52.10;;;;;;5053016;28;20076;-83
2021/11/01 13:55:07;;;;;;;0.60;0.32;;;21.00;52.20;;;;;;5030513;28;20037;-84
2021/11/01 13:57:43;;;;;;;2.00;0.70;;;21.00;52.30;;;;;;5011731;28;20119;-84
2021/11/01 14:03:13;;;;;;;0.60;0.38;;;21.00;52.30;;;;;;5026927;28;20037;-84
2021/11/01 14:14:08;;;;;;;1.13;0.65;;;21.00;52.20;;;;;;5026753;28;20026;-84
2021/11/01 14:16:50;;;;;;;0.55;0.40;;;21.00;52.30;;;;;;5040616;28;20013;-84
2021/11/01 14:19:45;;;;;;;0.73;0.40;;;21.00;52.30;;;;;;5025307;28;20057;-84
2021/11/01 14:28:10;;;;;;;0.60;0.40;;;21.00;52.30;;;;;;5039935;28;20028;-84
2021/11/01 14:33:46;;;;;;;0.57;0.47;;;21.00;52.40;;;;;;5039434;28;20120;-84
2021/11/01 15:19:30;;;;;;;1.13;0.32;;;21.10;52.30;;;;;;5045443;28;20056;-85
2021/11/01 15:25:11;;;;;;;1.73;0.52;;;21.00;52.20;;;;;;5044697;28;20020;-84
2021/11/01 15:27:30;;;;;;;0.40;0.30;;;21.10;52.20;;;;;;5022543;28;20104;-85
2021/11/01 16:16:38;;;;;;;1.42;0.47;;;20.50;53.40;;;;;;5049727;28;20041;-84
2021/11/01 16:18:49;;;;;;;0.85;0.35;;;20.50;53.50;;;;;;5034845;28;20037;-84
2021/11/01 16:21:16;;;;;;;0.52;0.40;;;20.50;53.70;;;;;;5048083;28;20037;-84
2021/11/01 16:24:02;;;;;;;0.88;0.50;;;20.50;53.70;;;;;;5035172;28;20021;-84
2021/11/01 16:26:48;;;;;;;0.77;0.50;;;20.40;53.80;;;;;;5042909;28;20057;-85
2021/11/01 16:29:20;;;;;;;0.22;0.22;;;20.40;53.90;;;;;;5035599;28;20021;-84
2021/11/01 16:31:48;;;;;;;0.73;0.40;;;20.40;54.00;;;;;;5004089;28;20045;-84
2021/11/01 16:34:31;;;;;;;0.95;0.50;;;20.30;54.00;;;;;;5021268;28;20052;-84
2021/11/01 16:39:29;;;;;;;1.13;0.50;;;20.30;54.20;;;;;;5021801;28;20029;-84
2021/11/01 16:41:57;;;;;;;1.40;0.55;;;20.20;54.20;;;;;;5020745;28;20295;-84
2021/11/01 16:44:33;;;;;;;0.32;0.20;;;20.20;54.40;;;;;;5036450;28;20018;-84
2021/11/01 16:46:58;;;;;;;1.00;0.60;;;20.20;54.50;;;;;;5023196;28;20009;-84
2021/11/01 16:49:25;;;;;;;0.82;0.32;;;20.10;54.50;;;;;;5021095;28;20036;-84
2021/11/01 16:51:51;;;;;;;0.70;0.40;;;20.10;54.60;;;;;;5004812;28;20024;-85
2021/11/01 16:54:22;;;;;;;1.17;0.50;;;20.10;54.70;;;;;;5005161;28;20482;-84
2021/11/01 17:04:46;;;;;;;0.60;0.38;;;19.90;55.10;;;;;;5023367;28;20503;-84
2021/11/01 17:36:48;;;;;;;0.40;0.20;;;19.60;56.10;;;;;;5032019;28;20028;-84
2021/11/01 18:51:08;;;;;;;0.95;0.40;;;19.10;57.30;;;;;;5021821;28;20032;-84
2021/11/01 18:53:51;;;;;;;1.05;0.38;;;19.10;57.30;;;;;;5020302;28;20066;-84
2021/11/01 18:56:23;;;;;;;0.75;0.40;;;19.00;57.30;;;;;;5034927;28;20028;-83
2021/11/01 18:58:49;;;;;;;;;;;19.10;57.30;;;;;;5019109;28;20026;-84
2021/11/01 19:01:15;;;;;;;0.30;0.30;;;19.00;57.30;;;;;;5035550;28;19916;-83
2021/11/01 19:03:44;;;;;;;0.50;0.47;;;19.10;57.30;;;;;;5001688;28;20030;-83
2021/11/01 20:04:35;;;;;;;0.75;0.40;;;18.70;57.90;;;;;;5033036;28;20076;-83
2021/11/01 20:07:25;;;;;;;0.70;0.40;;;18.70;57.80;;;;;;5016185;28;20041;-84
2021/11/01 21:27:13;;;;;;;0.68;0.52;;;18.50;58.30;;;;;;5051940;28;20056;-84
2021/11/01 21:29:41;;;;;;;2.30;0.40;;;18.50;58.30;;;;;;5043736;28;20038;-84
2021/11/01 21:32:08;;;;;;;0.60;0.47;;;18.50;58.30;;;;;;5040550;28;20033;-84
2021/11/01 21:34:39;;;;;;;0.60;0.50;;;18.50;58.40;;;;;;5027300;28;20037;-83
2021/11/01 21:37:06;;;;;;;1.30;0.50;;;18.40;58.40;;;;;;5027496;28;20089;-83
2021/11/01 21:39:34;;;;;;;0.65;0.55;;;18.40;58.40;;;;;;5012290;28;20048;-83
2021/11/01 21:42:00;;;;;;;0.47;0.43;;;18.40;58.40;;;;;;5030517;28;20101;-84
2021/11/01 21:44:32;;;;;;;0.40;0.30;;;18.40;58.40;;;;;;5011295;28;20022;-83
2021/11/01 21:46:58;;;;;;;0.63;0.45;;;18.40;58.40;;;;;;5040016;28;20145;-84
2021/11/01 21:49:24;;;;;;;0.50;0.40;;;18.40;58.40;;;;;;5037985;28;20006;-84
2021/11/01 21:51:53;;;;;;;0.85;0.50;;;18.40;58.40;;;;;;5020238;28;20022;-83
2021/11/01 21:54:30;;;;;;;0.70;0.60;;;18.40;58.40;;;;;;5036316;28;20384;-84
2021/11/01 21:57:15;;;;;;;0.82;0.40;;;18.40;58.50;;;;;;5021691;28;20022;-83
2021/11/01 22:18:34;;;;;;;1.00;0.30;;;18.30;58.40;;;;;;5038921;28;20024;-84
2021/11/01 22:21:04;;;;;;;1.50;0.40;;;18.30;58.40;;;;;;5020738;28;20026;-83
2021/11/01 22:39:20;;;;;;;0.65;0.40;;;18.30;58.50;;;;;;5042627;28;20095;-83
2021/11/01 22:41:55;;;;;;;0.50;0.50;;;18.30;58.50;;;;;;5030230;28;20048;-83
2021/11/01 22:57:54;;;;;;;0.93;0.40;;;18.20;58.60;;;;;;5050507;28;20112;-84
2021/11/01 23:00:23;;;;;;;0.30;0.28;;;18.20;58.50;;;;;;5030408;28;20018;-84
2021/11/01 23:03:15;;;;;;;0.55;0.30;;;18.20;58.50;;;;;;5034605;28;20622;-84
2021/11/01 23:33:10;;;;;;;0.50;0.35;;;18.20;58.60;;;;;;5037331;28;20391;-84
2021/11/01 23:35:38;;;;;;;0.47;0.40;;;18.20;58.60;;;;;;5003805;28;20021;-84
2021/11/01 23:38:04;;;;;;;0.50;0.40;;;18.20;58.70;;;;;;5036617;28;20163;-84
2021/11/01 23:40:36;;;;;;;0.30;0.30;;;18.20;58.60;;;;;;5037425;28;20028;-84
2021/11/01 23:43:01;;;;;;;0.80;0.40;;;18.20;58.70;;;;;;5019155;28;20427;-84
2021/11/01 23:45:33;;;;;;;0.63;0.52;;;18.20;58.60;;;;;;5018068;28;20101;-84
2021/11/01 23:47:59;;;;;;;0.68;0.47;;;18.20;58.60;;;;;;5017439;28;20034;-84
2021/11/01 23:50:29;;;;;;;1.85;0.63;;;18.20;58.60;;;;;;5033467;28;20472;-84
2021/11/01 23:53:03;;;;;;;0.38;0.38;;;18.20;58.70;;;;;;5017795;28;20014;-84
2021/11/01 23:55:29;;;;;;;0.47;0.30;;;18.10;58.60;;;;;;5034765;28;20021;-84
2021/11/01 23:57:57;;;;;;;0.50;0.30;;;18.10;58.70;;;;;;5032751;28;20479;-84
